• Join FlightAware (Why Join?)
  • Login
  • US Flag 
09:44PM EDT


 

Airport Tracker/Info


-or-


 

Live Flight TrackerFlight Track Log ✈ RPA3143 ✈ 08-Jul-2013 ✈ KDCA - KMCO

Flight Track Log - Related Links

Times and Time Zones

All times are in EDT time to prevent confusion due to time zone crossing. See the RPA3143 flight status page for this flight to view local times or setup timezone preferences in your user account.

Time Position Orientation Groundspeed Altitude Reporting Facility
EDT Latitude Longitude Course Direction KTS MPH feet Rate Location/Type
08:06AM 38.7833 -77.0333 233° Southwest 206 237 2,300  Level Potomac TRACON
08:07AM 38.7167 -77.0667 201° Southwest 276 318 4,400 2,580 Climbing Potomac TRACON
08:08AM 38.6319 -77.2848 218° Southwest  Level FlightAware Approximate
08:08AM 38.6833 -77.1333 237° Southwest 268 308 7,500  Level Potomac TRACON
08:09AM 38.5525 -77.3642 218° Southwest  Level FlightAware Approximate
08:09AM 38.6333 -77.2167 232° Southwest 271 312 10,300  Level Potomac TRACON
08:10AM 38.4795 -77.4526 225° Southwest  Level FlightAware Approximate
08:11AM 38.4059 -77.5387 201° Southwest  Level FlightAware Approximate
08:11AM 38.5633 -77.3147 228° Southwest 296 341 13,200  Level Washington Center
08:12AM 38.3369 -77.6274 233° Southwest  Level FlightAware Approximate
08:12AM 38.5100 -77.3986 231° Southwest 301 346 15,800  Level Washington Center
08:13AM 38.4544 -77.4819 230° Southwest 306 352 18,000 2,100 Climbing Washington Center
08:14AM 38.3947 -77.5706 229° Southwest 316 364 20,100 2,100 Climbing Washington Center
08:15AM 38.3369 -77.6592 230° Southwest 326 375 22,200 1,980 Climbing Washington Center
08:16AM 38.2769 -77.7525 231° Southwest 331 381 24,000 1,680 Climbing Washington Center
08:17AM 38.2147 -77.8458 230° Southwest 342 394 25,700 1,560 Climbing Washington Center
08:18AM 38.1544 -77.9444 232° Southwest 354 407 27,200 1,440 Climbing Washington Center
08:19AM 38.0878 -78.0400 228° Southwest 360 414 28,600 1,320 Climbing Washington Center
08:20AM 38.0253 -78.1356 230° Southwest 360 414 29,800 1,080 Climbing Washington Center
08:21AM 37.9442 -78.2275 222° Southwest 360 414 30,800 960 Climbing Washington Center
08:22AM 37.8611 -78.3036 216° Southwest 365 420 31,800 1,020 Climbing Washington Center
08:23AM 37.7864 -78.3744 217° Southwest 370 426 32,900 900 Climbing Washington Center
08:24AM 37.7033 -78.4528 217° Southwest 370 426 33,700 720 Climbing Washington Center
08:25AM 37.6200 -78.5308 217° Southwest 370 426 34,400 660 Climbing Washington Center
08:26AM 37.5389 -78.6089 217° Southwest 375 432 35,000 720 Climbing Washington Center
08:27AM 37.4450 -78.6917 215° Southwest 375 432 35,900 480 Climbing Washington Center
08:28AM 37.3617 -78.7692 216° Southwest 375 432 36,000  Climbing Washington Center
08:29AM 37.2781 -78.8467 216° Southwest 375 432 36,000  Level Washington Center
08:30AM 37.1947 -78.9239 216° Southwest 375 432 36,000  Level Washington Center
08:31AM 37.1175 -78.9936 216° Southwest 375 432 36,000  Level Washington Center
08:32AM 37.0319 -79.0731 217° Southwest 375 432 36,000  Level Washington Center
08:33AM 36.9481 -79.1550 218° Southwest 375 432 36,000  Level Washington Center
08:34AM 36.8622 -79.2314 215° Southwest 375 432 36,000  Level Washington Center
08:35AM 36.7764 -79.3106 216° Southwest 380 437 36,000  Level Washington Center
08:36AM 36.6819 -79.3992 217° Southwest 387 445 36,000  Level Washington Center
08:37AM 36.5917 -79.4800 216° Southwest 393 452 36,000  Level Washington Center
08:39AM 36.4011 -79.6511 216° Southwest 394 453 36,000  Level Atlanta Center
08:40AM 36.3022 -79.7417 216° Southwest 399 459 36,000  Level Atlanta Center
08:41AM 36.2131 -79.8208 216° Southwest 399 459 36,000  Level Atlanta Center
08:42AM 36.1242 -79.9000 216° Southwest 399 459 36,000  Level Atlanta Center
08:43AM 36.0347 -79.9767 215° Southwest 399 459 36,000  Level Atlanta Center
08:44AM 35.9425 -80.0247 203° Southwest 394 453 36,000  Level Atlanta Center
08:45AM 35.8422 -80.0783 203° Southwest 394 453 36,000  Level Atlanta Center
08:46AM 35.7394 -80.1269 201° Southwest 394 453 36,000  Level Atlanta Center
08:47AM 35.6267 -80.1886 204° Southwest 400 460 36,000  Level Atlanta Center
08:48AM 35.5217 -80.2394 202° Southwest 405 466 36,000  Level Atlanta Center
08:49AM 35.4192 -80.2925 203° Southwest 413 475 36,000  Level Atlanta Center
08:50AM 35.3164 -80.3431 202° Southwest 408 470 36,000  Level Atlanta Center
08:51AM 35.2094 -80.3961 202° Southwest 422 486 36,000  Level Atlanta Center
08:53AM 35.0047 -80.4978 202° Southwest 412 474 36,000  Level Jacksonville Center
08:54AM 34.8953 -80.5514 202° Southwest 412 474 36,000  Level Jacksonville Center
08:55AM 34.8064 -80.5967 203° Southwest 412 474 36,000  Level Jacksonville Center
08:56AM 34.7011 -80.6475 202° Southwest 407 468 36,000  Level Jacksonville Center
08:57AM 34.5750 -80.7139 203° Southwest 430 495 36,000  Level Jacksonville Center
08:58AM 34.4714 -80.7619 201° Southwest 425 489 36,000  Level Jacksonville Center
08:59AM 34.3658 -80.8147 202° Southwest 414 476 36,000  Level Jacksonville Center
09:00AM 34.2625 -80.8625 201° Southwest 403 464 36,000  Level Jacksonville Center
09:01AM 34.1756 -80.9047 202° Southwest 394 453 36,000  Level Jacksonville Center
09:02AM 34.0697 -80.9547 201° Southwest 394 453 36,000  Level Jacksonville Center
09:03AM 33.9664 -81.0044 202° Southwest 399 459 36,000  Level Jacksonville Center
09:04AM 33.8583 -81.0519 200° South 410 472 36,000  Level Jacksonville Center
09:05AM 33.7419 -81.0694 187° South 410 472 36,000  Level Jacksonville Center
09:06AM 33.6272 -81.0792 184° South 415 478 36,000  Level Jacksonville Center
09:07AM 33.5083 -81.0867 183° South 420 483 36,000  Level Jacksonville Center
09:08AM 33.3917 -81.0989 185° South 425 489 36,000  Level Jacksonville Center
09:09AM 33.2728 -81.1089 184° South 425 489 36,000  Level Jacksonville Center
09:10AM 33.1539 -81.1186 184° South 425 489 36,000  Level Jacksonville Center
09:11AM 33.0228 -81.1286 184° South 425 489 36,000  Level Jacksonville Center
09:12AM 32.9039 -81.1383 184° South 425 489 36,000  Level Jacksonville Center
09:13AM 32.7828 -81.1481 184° South 425 489 36,000  Level Jacksonville Center
09:14AM 32.6661 -81.1603 185° South 431 496 36,000  Level Jacksonville Center
09:15AM 32.5597 -81.1697 184° South 426 490 36,000  Level Jacksonville Center
09:16AM 32.4306 -81.1819 185° South 426 490 36,000  Level Jacksonville Center
09:17AM 32.3075 -81.1892 183° South 441 507 36,000  Level Jacksonville Center
09:18AM 32.1867 -81.1989 184° South 436 502 36,000  Level Jacksonville Center
09:19AM 32.0633 -81.2011 181° South 441 507 36,000  Level Jacksonville Center
09:20AM 31.9422 -81.1933 177° South 440 506 36,000  Level Jacksonville Center
09:21AM 31.8231 -81.1883 178° South 440 506 36,000  Level Jacksonville Center
09:22AM 31.7000 -81.1858 179° South 440 506 36,000  Level Jacksonville Center
09:23AM 31.5914 -81.1803 178° South 440 506 36,000  Level Jacksonville Center
09:24AM 31.4597 -81.1781 179° South 435 501 36,000  Level Jacksonville Center
09:25AM 31.3469 -81.1775 180° South 446 513 36,000  Level Jacksonville Center
09:26AM 31.2258 -81.1700 177° South 446 513 36,000  Level Jacksonville Center
09:27AM 31.1025 -81.1700 180° South 441 507 36,000  Level Jacksonville Center
09:28AM 30.9772 -81.1650 178° South 441 507 36,000  Level Jacksonville Center
09:29AM 30.8561 -81.1600 178° South 441 507 36,000 -300 Level Jacksonville Center
09:30AM 30.7350 -81.1572 179° South 441 507 35,500 -1,080 Descending Jacksonville Center
09:31AM 30.6075 -81.1525 178° South 441 507 33,900 -1,440 Descending Jacksonville Center
09:32AM 30.4822 -81.1497 179° South 441 507 32,700 -1,200 Descending Jacksonville Center
09:33AM 30.3464 -81.1450 178° South 441 507 31,500 -1,200 Descending Jacksonville Center
09:34AM 30.2231 -81.1425 179° South 447 514 30,400 -1,200 Descending Jacksonville Center
09:35AM 30.1019 -81.1375 178° South 441 507 29,200 -1,200 Descending Jacksonville Center
09:36AM 29.9850 -81.1325 178° South 435 501 28,000 -1,500 Descending Jacksonville Center
09:37AM 29.8661 -81.1322 180° South 435 501 26,200 -1,800 Descending Jacksonville Center
09:38AM 29.7553 -81.1294 179° South 421 484 24,500 -1,680 Descending Jacksonville Center
09:39AM 29.6467 -81.1267 179° South 404 465 22,900 -1,500 Descending Jacksonville Center
09:40AM 29.5444 -81.1236 179° South 391 450 21,500 -1,500 Descending Jacksonville Center
09:41AM 29.4400 -81.1208 179° South 378 435 20,000 6,240 Descending Jacksonville Center
09:42AM 29.3417 -81.1106 175° South 373 429 34,000 6,960 Climbing Jacksonville Center
09:43AM 29.2417 -81.1125 181° South 362 417 34,000 -9,780 Level Jacksonville Center
09:44AM 29.1456 -81.1000 174° South 362 417 14,500 -10,680 Descending Jacksonville Center
09:45AM 29.0514 -81.0944 177° South 352 405 12,700 -1,380 Descending Jacksonville Center
09:46AM 28.9636 -81.0867 176° South 338 389 11,800 -1,380 Descending Jacksonville Center
09:47AM 28.8800 -81.0811 177° South 321 369 10,000 -1,860 Descending Jacksonville Center
09:48AM 28.8167 -81.0667 169° South 296 341 8,600 -1,320 Descending Orlando TRACON
09:49AM 28.7667 -81.1333 229° Southwest 244 281 7,700 -1,440 Descending Orlando TRACON
09:50AM 28.7333 -81.2000 240° Southwest 249 287 5,800 -1,740 Descending Orlando TRACON
09:51AM 28.7000 -81.2667 240° Southwest 233 268 4,300 -900 Descending Orlando TRACON
09:52AM 28.6333 -81.2833 192° South 226 260 4,000 -780 Descending Orlando TRACON
09:53AM 28.5667 -81.2833 180° South 227 261 2,700 -1,200 Descending Orlando TRACON
09:54AM 28.5167 -81.2833 180° South 206 237 1,600 -1,140 Descending Orlando TRACON
09:55AM 28.4667 -81.2833 180° South 153 176 600 -1,020 Descending Orlando TRACON
09:57AM 28.4294 -81.3090 230° Southwest  Level Estimated
10:04AM 28.4294 -81.3090 230° Southwest  Level Estimated
10:05AM 28.4294 -81.3090 230° Southwest  Level Estimated
10:06AM 28.4294 -81.3090 230° Southwest  Level Estimated
10:07AM 28.4294 -81.3090 230° Southwest  Level Estimated